Iver Agile — IBHW — position and weather

sailwx.info

Track history (hours):
 
Tides and Currents Weather Stations Pressure Air Temp Water Temp Dewpoint Dewpoint Depression Visibility Wind Speed Wind Dir Waves Ship Positions

Iver Agile

Last reported at 2015-Jul-05 11:11 UTC. Time now 2015-Jul-05 13:18 UTC.
Position N 38°06' E 006°24'.

Length 110 m; draft 4.8 m.

Type: Tanker. MMSI: 247103700.

Date/timePositionNaut miles runAvg speedWind from/ knotsBaromVisibWave heightAir tempDewpointWater temp
2015-Jul-05 11:11N 38°06' E 006°24'1011.9
2015-Jul-05 10:21N 38°08' E 006°11'1011.6
2015-Jul-05 09:28N 38°09' E 005°58'1010.5
2015-Jul-05 08:33N 38°04' E 005°48'1211.9
2015-Jul-05 07:33N 37°56' E 005°37'2411.5
2015-Jul-05 05:28N 37°39' E 005°15'1011.5
2015-Jul-05 04:33N 37°32' E 005°06'1411.3
2015-Jul-05 03:18N 37°22' E 004°53'911.3
2015-Jul-05 02:33N 37°15' E 004°46'1110.6
2015-Jul-05 01:32N 37°10' E 004°35'1010.5
2015-Jul-05 00:33N 37°08' E 004°22'2110.2
2015-Jul-04 22:32N 37°05' E 003°56'1110.8
2015-Jul-04 21:33N 37°02' E 003°43'1110.9
2015-Jul-04 20:33N 36°60' E 003°30'25 1.1
2015-Jul-03 21:30N 36°46' E 003°04'3 2.8
2015-Jul-03 20:33N 36°46' E 003°07'1 0.6
2015-Jul-03 19:33N 36°46' E 003°08'0 0.0
2015-Jul-03 18:33N 36°46' E 003°08'0 0.0
2015-Jul-03 17:06N 36°46' E 003°08'0 0.0
2015-Jul-03 14:33N 36°46' E 003°08'0 0.0
2015-Jul-03 11:30N 36°46' E 003°08'0 0.0
2015-Jul-03 10:33N 36°46' E 003°08'0 0.0
2015-Jul-03 09:21N 36°46' E 003°08'0 0.0
2015-Jul-03 04:33N 36°46' E 003°08'0 0.0
2015-Jul-03 03:33N 36°46' E 003°08'0 0.0
2015-Jul-03 01:33N 36°46' E 003°08'0 0.0
2015-Jul-03 00:21N 36°46' E 003°08'0 0.0
2015-Jul-02 23:24N 36°46' E 003°08'0 0.0
2015-Jul-02 22:33N 36°46' E 003°08'0 0.0
2015-Jul-02 21:33N 36°46' E 003°08'0 0.0
2015-Jul-02 20:33N 36°46' E 003°08'0 0.0
2015-Jul-02 18:09N 36°46' E 003°08'0 0.0
2015-Jul-02 17:21N 36°46' E 003°08'0 0.0
2015-Jul-02 16:09N 36°46' E 003°08'0 0.0
2015-Jul-02 15:30N 36°46' E 003°08'0 0.0
2015-Jul-02 13:06N 36°46' E 003°08'0 0.0
2015-Jul-02 11:33N 36°46' E 003°08'9 2.1
2015-Jul-02 07:32N 36°52' E 003°00'1311.9
2015-Jul-02 06:28N 36°54' E 002°45'1111.9
2015-Jul-02 05:33N 36°56' E 002°32'1211.9
2015-Jul-02 04:33N 36°58' E 002°17'1211.3
2015-Jul-02 03:29N 37°01' E 002°02'1011.0
2015-Jul-02 02:33N 37°02' E 001°49'1110.7
2015-Jul-02 01:33N 37°04' E 001°36'1110.5
2015-Jul-02 00:30N 37°06' E 001°23'1010.3
2015-Jul-01 23:33N 37°08' E 001°11'1010.3
2015-Jul-01 22:33N 37°10' E 000°58'1111.1
2015-Jul-01 21:33N 37°12' E 000°44'1111.4
2015-Jul-01 20:33N 37°14' E 000°30'1111.2
2015-Jul-01 19:33N 37°16' E 000°16'1111.4
2015-Jul-01 18:33N 37°18' E 000°02'1110.9
2015-Jul-01 17:33N 37°21' W 000°11'1210.9
2015-Jul-01 16:30N 37°22' W 000°26'1111.2
2015-Jul-01 15:33N 37°24' W 000°39'1111.0
2015-Jul-01 14:32N 37°26' W 000°52'10 0.3
2015-Jun-30 04:32N 37°34' W 000°59'4 4.4
2015-Jun-30 03:33N 37°33' W 001°04'1 0.0
2015-Jun-29 06:15N 37°33' W 001°05'0 0.1
2015-Jun-29 05:27N 37°34' W 001°05'0 0.0
2015-Jun-28 23:33N 37°34' W 001°05'1 0.4
2015-Jun-28 20:05N 37°33' W 001°04'610.6
2015-Jun-28 19:33N 37°30' W 000°58'1313.2
2015-Jun-28 18:33N 37°27' W 000°41'1313.0
2015-Jun-28 17:33N 37°25' W 000°25'1313.5
2015-Jun-28 16:33N 37°25' W 000°08'1313.4
2015-Jun-28 15:33N 37°24' E 000°09'1313.4
2015-Jun-28 14:33N 37°24' E 000°25'1413.6
2015-Jun-28 13:33N 37°24' E 000°43'1413.5
2015-Jun-28 12:33N 37°23' E 000°60'1413.7
2015-Jun-28 11:33N 37°22' E 001°17'1413.8
2015-Jun-28 10:33N 37°22' E 001°34'3213.8
2015-Jun-28 08:11N 37°21' E 002°15'913.6
2015-Jun-28 07:32N 37°20' E 002°26'1413.5
2015-Jun-28 06:30N 37°20' E 002°44'1313.4
2015-Jun-28 05:33N 37°19' E 002°60'1313.3
2015-Jun-28 04:33N 37°19' E 003°17'1613.2
2015-Jun-28 03:21N 37°19' E 003°37'1113.6
2015-Jun-28 02:32N 37°18' E 003°50'1313.6
2015-Jun-28 01:33N 37°17' E 004°07'8713.6
2015-Jun-27 19:07N 37°14' E 005°57'814.1
2015-Jun-27 18:33N 37°14' E 006°07'1513.8
2015-Jun-27 17:30N 37°13' E 006°25'1212.8
2015-Jun-27 16:33N 37°09' E 006°39'1312.8
2015-Jun-27 15:33N 37°02' E 006°53'  
Track history (hours):
 
Tides and Currents Weather Stations Pressure Air Temp Water Temp Dewpoint Dewpoint Depression Visibility Wind Speed Wind Dir Waves Ship Positions

Iver Agile

Last reported at 2015-Jul-05 11:11 UTC. Time now 2015-Jul-05 13:18 UTC.
Position N 38°06' E 006°24'.

Length 110 m; draft 4.8 m.

Type: Tanker. MMSI: 247103700.

Date/timePositionNaut miles runAvg speedWind from/ knotsBaromVisibWave heightAir tempDewpointWater temp
2015-Jul-05 11:11N 38°06' E 006°24'1011.9
2015-Jul-05 10:21N 38°08' E 006°11'1011.6
2015-Jul-05 09:28N 38°09' E 005°58'1010.5
2015-Jul-05 08:33N 38°04' E 005°48'1211.9
2015-Jul-05 07:33N 37°56' E 005°37'2411.5
2015-Jul-05 05:28N 37°39' E 005°15'1011.5
2015-Jul-05 04:33N 37°32' E 005°06'1411.3
2015-Jul-05 03:18N 37°22' E 004°53'911.3
2015-Jul-05 02:33N 37°15' E 004°46'1110.6
2015-Jul-05 01:32N 37°10' E 004°35'1010.5
2015-Jul-05 00:33N 37°08' E 004°22'2110.2
2015-Jul-04 22:32N 37°05' E 003°56'1110.8
2015-Jul-04 21:33N 37°02' E 003°43'1110.9
2015-Jul-04 20:33N 36°60' E 003°30'25 1.1
2015-Jul-03 21:30N 36°46' E 003°04'3 2.8
2015-Jul-03 20:33N 36°46' E 003°07'1 0.6
2015-Jul-03 19:33N 36°46' E 003°08'0 0.0
2015-Jul-03 18:33N 36°46' E 003°08'0 0.0
2015-Jul-03 17:06N 36°46' E 003°08'0 0.0
2015-Jul-03 14:33N 36°46' E 003°08'0 0.0
2015-Jul-03 11:30N 36°46' E 003°08'0 0.0
2015-Jul-03 10:33N 36°46' E 003°08'0 0.0
2015-Jul-03 09:21N 36°46' E 003°08'0 0.0
2015-Jul-03 04:33N 36°46' E 003°08'0 0.0
2015-Jul-03 03:33N 36°46' E 003°08'0 0.0
2015-Jul-03 01:33N 36°46' E 003°08'0 0.0
2015-Jul-03 00:21N 36°46' E 003°08'0 0.0
2015-Jul-02 23:24N 36°46' E 003°08'0 0.0
2015-Jul-02 22:33N 36°46' E 003°08'0 0.0
2015-Jul-02 21:33N 36°46' E 003°08'0 0.0
2015-Jul-02 20:33N 36°46' E 003°08'0 0.0
2015-Jul-02 18:09N 36°46' E 003°08'0 0.0
2015-Jul-02 17:21N 36°46' E 003°08'0 0.0
2015-Jul-02 16:09N 36°46' E 003°08'0 0.0
2015-Jul-02 15:30N 36°46' E 003°08'0 0.0
2015-Jul-02 13:06N 36°46' E 003°08'0 0.0
2015-Jul-02 11:33N 36°46' E 003°08'9 2.1
2015-Jul-02 07:32N 36°52' E 003°00'1311.9
2015-Jul-02 06:28N 36°54' E 002°45'1111.9
2015-Jul-02 05:33N 36°56' E 002°32'1211.9
2015-Jul-02 04:33N 36°58' E 002°17'1211.3
2015-Jul-02 03:29N 37°01' E 002°02'1011.0
2015-Jul-02 02:33N 37°02' E 001°49'1110.7
2015-Jul-02 01:33N 37°04' E 001°36'1110.5
2015-Jul-02 00:30N 37°06' E 001°23'1010.3
2015-Jul-01 23:33N 37°08' E 001°11'1010.3
2015-Jul-01 22:33N 37°10' E 000°58'1111.1
2015-Jul-01 21:33N 37°12' E 000°44'1111.4
2015-Jul-01 20:33N 37°14' E 000°30'1111.2
2015-Jul-01 19:33N 37°16' E 000°16'1111.4
2015-Jul-01 18:33N 37°18' E 000°02'1110.9
2015-Jul-01 17:33N 37°21' W 000°11'1210.9
2015-Jul-01 16:30N 37°22' W 000°26'1111.2
2015-Jul-01 15:33N 37°24' W 000°39'1111.0
2015-Jul-01 14:32N 37°26' W 000°52'10 0.3
2015-Jun-30 04:32N 37°34' W 000°59'4 4.4
2015-Jun-30 03:33N 37°33' W 001°04'1 0.0
2015-Jun-29 06:15N 37°33' W 001°05'0 0.1
2015-Jun-29 05:27N 37°34' W 001°05'0 0.0
2015-Jun-28 23:33N 37°34' W 001°05'1 0.4
2015-Jun-28 20:05N 37°33' W 001°04'610.6
2015-Jun-28 19:33N 37°30' W 000°58'1313.2
2015-Jun-28 18:33N 37°27' W 000°41'1313.0
2015-Jun-28 17:33N 37°25' W 000°25'1313.5
2015-Jun-28 16:33N 37°25' W 000°08'1313.4
2015-Jun-28 15:33N 37°24' E 000°09'1313.4
2015-Jun-28 14:33N 37°24' E 000°25'1413.6
2015-Jun-28 13:33N 37°24' E 000°43'1413.5
2015-Jun-28 12:33N 37°23' E 000°60'1413.7
2015-Jun-28 11:33N 37°22' E 001°17'1413.8
2015-Jun-28 10:33N 37°22' E 001°34'3213.8
2015-Jun-28 08:11N 37°21' E 002°15'913.6
2015-Jun-28 07:32N 37°20' E 002°26'1413.5
2015-Jun-28 06:30N 37°20' E 002°44'1313.4
2015-Jun-28 05:33N 37°19' E 002°60'1313.3
2015-Jun-28 04:33N 37°19' E 003°17'1613.2
2015-Jun-28 03:21N 37°19' E 003°37'1113.6
2015-Jun-28 02:32N 37°18' E 003°50'1313.6
2015-Jun-28 01:33N 37°17' E 004°07'8713.6
2015-Jun-27 19:07N 37°14' E 005°57'814.1
2015-Jun-27 18:33N 37°14' E 006°07'1513.8
2015-Jun-27 17:30N 37°13' E 006°25'1212.8
2015-Jun-27 16:33N 37°09' E 006°39'1312.8
2015-Jun-27 15:33N 37°02' E 006°53'  

Dump ship's entire track history